createdAt,value
2022-08-11T00:01:12.852Z,100558.72
2022-08-11T00:03:59.911Z,100549.91
2022-08-11T00:06:31.636Z,100550.91
2022-08-11T00:08:59.078Z,100547.31
2022-08-11T00:11:33.536Z,100552.94
2022-08-11T00:14:01.090Z,100554.84
2022-08-11T00:16:28.164Z,100552.38
2022-08-11T00:18:55.878Z,100550.97
2022-08-11T00:21:35.530Z,100552.84
2022-08-11T00:24:11.794Z,100550.13
2022-08-11T00:26:38.791Z,100556.69
2022-08-11T00:29:12.396Z,100554.47
2022-08-11T00:31:44.373Z,100565.31
2022-08-11T00:34:12.626Z,100554.94
2022-08-11T00:37:03.346Z,100557.53
2022-08-11T00:39:32.004Z,100547.50
2022-08-11T00:41:58.855Z,100547.84
2022-08-11T00:44:37.290Z,100541.59
2022-08-11T00:47:10.203Z,100537.47
2022-08-11T00:49:40.078Z,100536.97
2022-08-11T00:52:22.262Z,100544.72
2022-08-11T00:54:49.483Z,100540.38
2022-08-11T00:57:37.167Z,100541.31
2022-08-11T01:00:13.989Z,100538.97
2022-08-11T01:02:52.622Z,100540.75
2022-08-11T01:05:38.280Z,100531.19
2022-08-11T01:08:15.887Z,100535.63
2022-08-11T01:10:53.461Z,100538.53
2022-08-11T01:13:39.135Z,100544.94
2022-08-11T01:16:13.169Z,100540.44
2022-08-11T01:19:05.615Z,100544.97
2022-08-11T01:21:51.501Z,100543.03
2022-08-11T01:24:37.471Z,100544.34
2022-08-11T01:27:18.975Z,100545.41
2022-08-11T01:30:05.685Z,100545.09
2022-08-11T01:32:32.665Z,100541.94
2022-08-11T01:34:59.525Z,100538.41
2022-08-11T01:37:44.837Z,100536.78
2022-08-11T01:40:14.488Z,100541.63
2022-08-11T01:43:09.323Z,100531.16
2022-08-11T01:46:14.881Z,100537.75
2022-08-11T01:48:50.048Z,100537.16
2022-08-11T01:51:40.844Z,100541.03
2022-08-11T01:54:18.577Z,100543.09
2022-08-11T01:57:04.275Z,100530.25
2022-08-11T01:59:48.907Z,100542.00
2022-08-11T02:02:21.824Z,100537.97
2022-08-11T02:05:03.192Z,100526.94
2022-08-11T02:07:32.893Z,100523.81
2022-08-11T02:10:38.529Z,100527.28
2022-08-11T02:13:11.742Z,100522.59
2022-08-11T02:15:47.714Z,100516.59
2022-08-11T02:18:23.029Z,100529.53
2022-08-11T02:21:17.651Z,100533.31
2022-08-11T02:24:05.292Z,100527.53
2022-08-11T02:26:40.014Z,100532.16
2022-08-11T02:29:19.976Z,100529.38
2022-08-11T02:32:24.374Z,100527.22
2022-08-11T02:35:01.673Z,100529.69
2022-08-11T02:37:34.449Z,100525.47
2022-08-11T02:40:21.140Z,100522.75
2022-08-11T02:42:48.391Z,100525.00
2022-08-11T02:45:34.401Z,100522.22
2022-08-11T02:48:38.895Z,100519.88
2022-08-11T02:51:30.087Z,100530.66
2022-08-11T02:54:17.756Z,100524.75
2022-08-11T02:56:47.650Z,100542.69
2022-08-11T02:59:42.247Z,100535.50
2022-08-11T03:02:28.022Z,100543.66
2022-08-11T03:05:12.250Z,100544.00
2022-08-11T03:08:02.104Z,100555.22
2022-08-11T03:11:07.643Z,100559.59
2022-08-11T03:13:54.144Z,100560.22
2022-08-11T03:16:46.792Z,100560.22
2022-08-11T03:19:13.651Z,100560.13
2022-08-11T03:22:02.473Z,100558.16
2022-08-11T03:24:49.390Z,100567.00
2022-08-11T03:27:19.967Z,100564.59
2022-08-11T03:29:51.392Z,100568.03
2022-08-11T03:33:07.501Z,100554.59
2022-08-11T03:35:40.600Z,100558.81
2022-08-11T03:38:11.187Z,100558.84
2022-08-11T03:40:59.356Z,100569.31
2022-08-11T03:43:45.612Z,100568.94
2022-08-11T03:46:50.142Z,100571.91
2022-08-11T03:49:17.008Z,100575.44
2022-08-11T03:52:02.734Z,100587.72
2022-08-11T03:54:42.513Z,100574.63
2022-08-11T03:57:27.941Z,100576.28
2022-08-11T04:00:02.292Z,100568.22
2022-08-11T04:02:52.791Z,100572.84
2022-08-11T04:05:34.995Z,100573.50
2022-08-11T04:08:04.561Z,100576.69
2022-08-11T04:10:44.191Z,100573.56
2022-08-11T04:13:20.137Z,100572.81
2022-08-11T04:16:11.501Z,100577.19
2022-08-11T04:18:51.980Z,100565.84
2022-08-11T04:21:37.545Z,100576.84
2022-08-11T04:24:34.405Z,100570.19
2022-08-11T04:27:14.435Z,100573.50
2022-08-11T04:30:05.595Z,100569.47
2022-08-11T04:32:51.626Z,100577.44
2022-08-11T04:35:37.130Z,100572.41
2022-08-11T04:38:22.364Z,100574.44
2022-08-11T04:41:15.293Z,100575.03
2022-08-11T04:44:02.466Z,100581.47
2022-08-11T04:46:41.905Z,100577.88
2022-08-11T04:49:39.874Z,100580.16
2022-08-11T04:52:38.448Z,100577.47
2022-08-11T04:55:33.340Z,100570.06
2022-08-11T04:58:32.242Z,100570.72
2022-08-11T05:01:37.698Z,100569.94
2022-08-11T05:04:42.534Z,100569.94
2022-08-11T05:07:20.901Z,100567.53
2022-08-11T05:10:03.718Z,100573.13
2022-08-11T05:12:42.745Z,100575.19
2022-08-11T05:15:51.619Z,100580.72
2022-08-11T05:18:42.998Z,100562.72
2022-08-11T05:21:29.619Z,100568.00
2022-08-11T05:24:38.611Z,100577.25
2022-08-11T05:27:25.909Z,100578.03
2022-08-11T05:30:22.020Z,100578.00
2022-08-11T05:33:16.336Z,100577.66
2022-08-11T05:35:59.990Z,100580.06
2022-08-11T05:38:49.788Z,100582.34
2022-08-11T05:41:39.457Z,100583.56
2022-08-11T05:44:25.213Z,100586.06
2022-08-11T05:47:10.895Z,100588.03
2022-08-11T05:49:58.003Z,100587.25
2022-08-11T05:52:45.872Z,100592.22
2022-08-11T05:55:33.073Z,100585.34
2022-08-11T05:58:02.707Z,100582.94
2022-08-11T06:00:30.167Z,100580.84
2022-08-11T06:03:01.013Z,100580.44
2022-08-11T06:05:43.495Z,100580.97
2022-08-11T06:08:12.731Z,100583.81
2022-08-11T06:10:40.993Z,100581.03
2022-08-11T06:13:08.788Z,100585.69
2022-08-11T06:15:44.302Z,100579.63
2022-08-11T06:18:12.452Z,100578.53
2022-08-11T06:20:54.209Z,100582.13
2022-08-11T06:23:25.416Z,100576.81
2022-08-11T06:25:53.214Z,100581.00
2022-08-11T06:28:34.626Z,100584.72
2022-08-11T06:31:02.643Z,100584.72
2022-08-11T06:33:31.396Z,100577.16
2022-08-11T06:36:07.861Z,100574.88
2022-08-11T06:38:40.373Z,100579.63
2022-08-11T06:41:30.973Z,100588.66
2022-08-11T06:44:05.222Z,100580.34
2022-08-11T06:46:39.196Z,100582.94
2022-08-11T06:49:27.981Z,100585.34
2022-08-11T06:52:04.404Z,100574.41
2022-08-11T06:54:37.173Z,100584.50
2022-08-11T06:57:41.989Z,100583.72
2022-08-11T07:00:27.685Z,100581.38
2022-08-11T07:02:54.617Z,100586.88
2022-08-11T07:05:44.892Z,100582.53
2022-08-11T07:08:35.759Z,100589.97
2022-08-11T07:11:51.500Z,100585.34
2022-08-11T07:14:39.914Z,100580.94
2022-08-11T07:17:08.939Z,100577.56
2022-08-11T07:19:57.035Z,100574.19
2022-08-11T07:22:43.272Z,100572.84
2022-08-11T07:25:33.054Z,100579.34
2022-08-11T07:28:25.672Z,100575.69
2022-08-11T07:31:01.562Z,100581.06
2022-08-11T07:34:08.107Z,100581.44
2022-08-11T07:36:28.698Z,100572.94
2022-08-11T07:38:56.762Z,100578.22
2022-08-11T07:41:24.631Z,100574.66
2022-08-11T07:43:57.143Z,100583.66
2022-08-11T07:46:42.861Z,100579.63
2022-08-11T07:49:29.072Z,100576.13
2022-08-11T07:52:14.758Z,100574.91
2022-08-11T07:54:41.945Z,100581.75
2022-08-11T07:57:59.492Z,100584.09
2022-08-11T08:00:34.104Z,100582.03
2022-08-11T08:03:30.059Z,100588.66
2022-08-11T08:06:35.688Z,100577.84
2022-08-11T08:09:23.685Z,100575.28
2022-08-11T08:12:09.469Z,100574.13
2022-08-11T08:14:56.161Z,100577.00
2022-08-11T08:17:41.818Z,100583.72
2022-08-11T08:20:11.516Z,100577.53
2022-08-11T08:22:39.770Z,100570.47
2022-08-11T08:25:08.538Z,100582.59
2022-08-11T08:27:35.806Z,100569.78
2022-08-11T08:30:27.278Z,100569.78
2022-08-11T08:32:57.843Z,100566.84
2022-08-11T08:35:28.235Z,100557.56
2022-08-11T08:37:59.950Z,100557.00
2022-08-11T08:40:27.284Z,100550.41
2022-08-11T08:42:56.492Z,100553.47
2022-08-11T08:45:24.028Z,100559.13
2022-08-11T08:48:01.825Z,100558.22
2022-08-11T08:50:52.169Z,100555.16
2022-08-11T08:53:21.844Z,100546.72
2022-08-11T08:55:50.920Z,100551.59
2022-08-11T08:58:20.658Z,100547.91
2022-08-11T09:00:50.627Z,100556.06
2022-08-11T09:06:07.128Z,100548.25
2022-08-11T09:08:35.294Z,100550.91
2022-08-11T09:11:21.803Z,100545.28
2022-08-11T09:14:05.128Z,100534.97
2022-08-11T09:16:34.363Z,100531.06
2022-08-11T09:19:01.737Z,100533.97
2022-08-11T09:21:46.304Z,100537.50
2022-08-11T09:24:35.427Z,100528.19
2022-08-11T09:27:06.000Z,100529.16
2022-08-11T09:29:33.139Z,100530.88
2022-08-11T09:32:00.494Z,100527.28
2022-08-11T09:34:27.847Z,100529.22
2022-08-11T09:37:13.435Z,100521.31
2022-08-11T09:40:15.455Z,100521.41
2022-08-11T09:43:01.055Z,100510.75
2022-08-11T09:45:28.178Z,100516.88
2022-08-11T09:48:07.763Z,100508.53
2022-08-11T09:50:35.262Z,100510.97
2022-08-11T09:53:37.156Z,100505.59
2022-08-11T09:55:53.756Z,100493.22
2022-08-11T09:58:41.495Z,100503.47
2022-08-11T10:01:27.511Z,100507.59
2022-08-11T10:03:57.870Z,100497.09
2022-08-11T10:06:44.795Z,100491.38
2022-08-11T10:09:19.969Z,100489.72
2022-08-11T10:11:57.765Z,100491.63
2022-08-11T10:14:45.167Z,100483.72
2022-08-11T10:17:14.778Z,100479.16
2022-08-11T10:19:42.554Z,100484.00
2022-08-11T10:22:28.111Z,100472.53
2022-08-11T10:25:19.812Z,100484.03
2022-08-11T10:28:28.178Z,100469.44
2022-08-11T10:31:05.702Z,100464.03
2022-08-11T10:33:59.059Z,100470.84
2022-08-11T10:36:34.364Z,100462.97
2022-08-11T10:39:02.623Z,100458.44
2022-08-11T10:42:06.383Z,100461.78
2022-08-11T10:44:38.323Z,100468.03
2022-08-11T10:47:25.097Z,100452.88
2022-08-11T10:50:12.848Z,100450.72
2022-08-11T10:52:58.853Z,100447.72
2022-08-11T10:55:44.988Z,100442.94
2022-08-11T10:58:30.664Z,100435.75
2022-08-11T11:00:59.092Z,100433.22
2022-08-11T11:03:28.299Z,100435.38
2022-08-11T11:06:28.509Z,100430.94
2022-08-11T11:08:58.827Z,100432.00
2022-08-11T11:11:51.832Z,100415.66
2022-08-11T11:14:45.741Z,100422.50
2022-08-11T11:17:34.070Z,100413.28
2022-08-11T11:20:03.817Z,100412.59
2022-08-11T11:22:40.505Z,100406.09
2022-08-11T11:25:10.789Z,100408.81
2022-08-11T11:27:56.595Z,100407.88
2022-08-11T11:30:27.987Z,100415.50
2022-08-11T11:33:11.899Z,100394.69
2022-08-11T11:35:48.778Z,100398.22
2022-08-11T11:38:15.932Z,100403.78
2022-08-11T11:40:43.578Z,100401.22
2022-08-11T11:43:10.643Z,100399.25
2022-08-11T11:45:38.053Z,100401.63
2022-08-11T11:48:05.370Z,100408.34
2022-08-11T11:50:36.765Z,100398.59
2022-08-11T11:53:07.504Z,100397.31
2022-08-11T11:55:35.416Z,100402.09
2022-08-11T11:58:22.396Z,100396.47
2022-08-11T12:01:09.488Z,100390.44
2022-08-11T12:03:38.167Z,100386.03
2022-08-11T12:06:05.459Z,100383.47
2022-08-11T12:08:32.633Z,100388.84
2022-08-11T12:11:22.384Z,100379.59
2022-08-11T12:13:53.355Z,100376.72
2022-08-11T12:16:34.371Z,100376.31
2022-08-11T12:19:05.496Z,100378.06
2022-08-11T12:21:32.788Z,100379.81
2022-08-11T12:24:35.382Z,100379.69
2022-08-11T12:27:20.822Z,100374.03
2022-08-11T12:30:00.527Z,100373.50
2022-08-11T12:32:29.368Z,100375.81
2022-08-11T12:34:58.143Z,100376.97
2022-08-11T12:37:30.481Z,100365.50
2022-08-11T12:40:42.599Z,100373.09
2022-08-11T12:43:37.397Z,100359.06
2022-08-11T12:46:07.419Z,100359.84
2022-08-11T12:49:02.471Z,100359.16
2022-08-11T12:52:12.144Z,100361.53
2022-08-11T12:54:52.333Z,100360.56
2022-08-11T12:57:44.317Z,100364.94
2022-08-11T13:00:29.915Z,100345.38
2022-08-11T13:03:16.041Z,100352.72
2022-08-11T13:05:45.136Z,100352.72
2022-08-11T13:08:15.413Z,100353.69
2022-08-11T13:11:01.809Z,100352.31
2022-08-11T13:13:54.455Z,100348.50
2022-08-11T13:16:17.279Z,100344.59
2022-08-11T13:18:44.471Z,100341.16
2022-08-11T13:21:12.091Z,100342.31
2022-08-11T13:23:59.573Z,100333.38
2022-08-11T13:26:48.191Z,100334.84
2022-08-11T13:29:27.782Z,100334.19
2022-08-11T13:31:56.591Z,100333.66
2022-08-11T13:34:24.977Z,100337.16
2022-08-11T13:36:53.431Z,100335.72
2022-08-11T13:39:23.918Z,100330.88
2022-08-11T13:41:52.466Z,100329.72
2022-08-11T13:44:25.357Z,100328.25
2022-08-11T13:46:59.444Z,100316.09
2022-08-11T13:49:26.824Z,100317.91
2022-08-11T13:51:55.257Z,100317.41
2022-08-11T13:54:24.074Z,100308.66
2022-08-11T13:56:53.773Z,100307.13
2022-08-11T13:59:24.162Z,100307.63
2022-08-11T14:02:22.305Z,100308.66
2022-08-11T14:04:52.574Z,100294.84
2022-08-11T14:07:22.883Z,100297.53
2022-08-11T14:09:56.401Z,100294.66
2022-08-11T14:12:44.485Z,100290.19
2022-08-11T14:15:31.721Z,100283.91
2022-08-11T14:18:17.960Z,100277.28
2022-08-11T14:21:09.119Z,100273.69
2022-08-11T14:23:38.952Z,100275.19
2022-08-11T14:26:30.450Z,100268.72
2022-08-11T14:29:10.057Z,100265.28
2022-08-11T14:32:06.668Z,100256.81
2022-08-11T14:34:34.779Z,100268.16
2022-08-11T14:37:06.901Z,100265.28
2022-08-11T14:39:41.194Z,100251.75
2022-08-11T14:42:28.100Z,100250.72
2022-08-11T14:45:15.688Z,100266.38
2022-08-11T14:47:44.163Z,100255.53
2022-08-11T14:50:15.445Z,100258.88
2022-08-11T14:53:01.243Z,100265.09
2022-08-11T14:55:48.025Z,100263.25
2022-08-11T14:58:19.907Z,100265.34
2022-08-11T15:00:47.728Z,100266.56
2022-08-11T15:03:15.567Z,100256.00
2022-08-11T15:05:56.177Z,100262.31
2022-08-11T15:08:47.775Z,100255.81
2022-08-11T15:11:34.629Z,100246.19
2022-08-11T15:14:02.934Z,100244.28
2022-08-11T15:16:49.015Z,100241.50
2022-08-11T15:19:17.324Z,100240.66
2022-08-11T15:22:02.868Z,100238.47
2022-08-11T15:24:30.705Z,100245.31
2022-08-11T15:27:18.352Z,100250.78
2022-08-11T15:30:04.884Z,100251.09
2022-08-11T15:32:51.811Z,100251.41
2022-08-11T15:35:39.157Z,100240.84
2022-08-11T15:38:07.300Z,100240.34
2022-08-11T15:40:58.093Z,100238.75
2022-08-11T15:44:08.012Z,100236.09
2022-08-11T15:46:34.898Z,100237.59
2022-08-11T15:49:04.372Z,100228.63
2022-08-11T15:51:48.223Z,100228.69
2022-08-11T15:54:17.469Z,100225.38
2022-08-11T15:56:49.897Z,100211.94
2022-08-11T15:59:42.220Z,100220.94
2022-08-11T16:02:16.378Z,100220.22
2022-08-11T16:04:44.699Z,100220.97
2022-08-11T16:07:19.429Z,100217.59
2022-08-11T16:10:03.112Z,100209.84
2022-08-11T16:12:32.919Z,100204.78
2022-08-11T16:15:22.147Z,100208.81
2022-08-11T16:17:50.811Z,100212.81
2022-08-11T16:20:21.042Z,100216.19
2022-08-11T16:23:00.298Z,100213.31
2022-08-11T16:26:30.278Z,100218.16
2022-08-11T16:28:17.897Z,100217.84
2022-08-11T16:30:46.706Z,100213.69
2022-08-11T16:33:22.768Z,100209.50
2022-08-11T16:36:21.735Z,100211.44
2022-08-11T16:38:49.681Z,100210.28
2022-08-11T16:41:38.630Z,100209.47
2022-08-11T16:44:37.241Z,100210.94
2022-08-11T16:47:10.348Z,100202.16
2022-08-11T16:49:38.900Z,100203.16
2022-08-11T16:52:12.269Z,100207.00
2022-08-11T16:54:39.907Z,100204.56
2022-08-11T16:57:41.203Z,100207.47
2022-08-11T17:00:12.844Z,100200.66
2022-08-11T17:03:03.459Z,100203.41
2022-08-11T17:05:54.199Z,100197.69
2022-08-11T17:08:48.415Z,100199.00
2022-08-11T17:11:45.509Z,100207.91
2022-08-11T17:14:14.959Z,100210.50
2022-08-11T17:16:42.844Z,100210.31
2022-08-11T17:19:12.935Z,100219.09
2022-08-11T17:22:01.578Z,100203.66
2022-08-11T17:24:31.671Z,100211.56
2022-08-11T17:27:00.224Z,100210.19
2022-08-11T17:29:30.974Z,100206.63
2022-08-11T17:32:18.376Z,100213.22
2022-08-11T17:35:05.112Z,100205.22
2022-08-11T17:37:33.268Z,100207.44
2022-08-11T17:40:01.685Z,100210.50
2022-08-11T17:42:48.469Z,100201.88
2022-08-11T17:45:34.581Z,100212.72
2022-08-11T17:48:20.148Z,100213.50
2022-08-11T17:50:48.333Z,100211.16
2022-08-11T17:53:34.683Z,100215.16
2022-08-11T17:56:33.974Z,100214.59
2022-08-11T17:59:20.104Z,100220.84
2022-08-11T18:01:51.371Z,100218.47
2022-08-11T18:04:22.423Z,100219.31
2022-08-11T18:06:50.093Z,100216.84
2022-08-11T18:09:38.143Z,100223.94
2022-08-11T18:12:24.970Z,100219.94
2022-08-11T18:15:12.130Z,100218.81
2022-08-11T18:17:58.931Z,100232.81
2022-08-11T18:20:45.975Z,100230.94
2022-08-11T18:23:41.787Z,100233.63
2022-08-11T18:26:35.207Z,100237.88
2022-08-11T18:29:21.490Z,100236.97
2022-08-11T18:32:08.536Z,100239.84
2022-08-11T18:34:56.069Z,100239.72
2022-08-11T18:37:44.456Z,100248.00
2022-08-11T18:40:33.212Z,100236.69
2022-08-11T18:43:25.079Z,100245.63
2022-08-11T18:46:16.412Z,100249.63
2022-08-11T18:49:10.627Z,100253.09
2022-08-11T18:51:59.400Z,100257.09
2022-08-11T18:54:47.110Z,100259.31
2022-08-11T18:57:47.054Z,100265.16
2022-08-11T19:00:40.098Z,100258.31
2022-08-11T19:03:25.698Z,100266.66
2022-08-11T19:06:39.378Z,100261.88
2022-08-11T19:09:18.807Z,100258.84
2022-08-11T19:12:04.611Z,100261.34
2022-08-11T19:14:53.327Z,100262.16
2022-08-11T19:17:44.881Z,100264.66
2022-08-11T19:20:36.803Z,100266.31
2022-08-11T19:23:24.089Z,100260.38
2022-08-11T19:26:09.657Z,100263.25
2022-08-11T19:28:56.066Z,100263.13
2022-08-11T19:31:44.774Z,100259.66
2022-08-11T19:34:33.413Z,100260.81
2022-08-11T19:37:24.079Z,100259.66
2022-08-11T19:40:16.621Z,100261.34
2022-08-11T19:43:02.786Z,100266.69
2022-08-11T19:45:52.512Z,100264.66
2022-08-11T19:48:42.519Z,100267.88
2022-08-11T19:51:29.005Z,100272.44
2022-08-11T19:54:15.357Z,100277.13
2022-08-11T19:57:01.776Z,100265.81
2022-08-11T19:59:47.632Z,100268.84
2022-08-11T20:02:33.301Z,100276.78
2022-08-11T20:05:18.657Z,100276.59
2022-08-11T20:08:05.214Z,100274.31
2022-08-11T20:10:52.148Z,100272.53
2022-08-11T20:13:42.616Z,100278.13
2022-08-11T20:16:31.027Z,100276.84
2022-08-11T20:19:17.794Z,100276.25
2022-08-11T20:22:08.093Z,100275.00
2022-08-11T20:24:56.671Z,100278.88
2022-08-11T20:27:42.974Z,100279.34
2022-08-11T20:30:28.638Z,100277.81
2022-08-11T20:33:14.109Z,100278.91
2022-08-11T20:35:59.677Z,100281.75
2022-08-11T20:38:48.895Z,100289.19
2022-08-11T20:41:58.106Z,100276.97
2022-08-11T20:44:41.375Z,100284.91
2022-08-11T20:47:26.814Z,100286.22
2022-08-11T20:50:19.428Z,100291.03
2022-08-11T20:53:06.484Z,100283.88
2022-08-11T20:55:53.684Z,100282.78
2022-08-11T21:01:46.277Z,100281.34
2022-08-11T21:04:32.772Z,100277.50
2022-08-11T21:07:28.552Z,100273.88
2022-08-11T21:10:23.721Z,100281.72
2022-08-11T21:13:24.163Z,100281.34
2022-08-11T21:16:25.274Z,100283.50
2022-08-11T21:20:00.388Z,100284.09
2022-08-11T21:22:28.487Z,100285.56
2022-08-11T21:25:15.721Z,100289.44
2022-08-11T21:28:01.241Z,100290.78
2022-08-11T21:30:47.233Z,100297.50
2022-08-11T21:33:32.906Z,100297.06
2022-08-11T21:36:18.935Z,100296.09
2022-08-11T21:39:05.183Z,100297.31
2022-08-11T21:41:51.461Z,100301.19
2022-08-11T21:44:37.372Z,100304.03
2022-08-11T21:47:42.576Z,100290.44
2022-08-11T21:50:29.313Z,100292.75
2022-08-11T21:53:16.856Z,100291.66
2022-08-11T21:56:02.722Z,100298.22
2022-08-11T21:58:49.003Z,100292.81
2022-08-11T22:01:35.193Z,100298.63
2022-08-11T22:04:21.766Z,100280.84
2022-08-11T22:07:08.843Z,100280.59
2022-08-11T22:09:54.951Z,100280.06
2022-08-11T22:12:44.650Z,100283.28
2022-08-11T22:15:30.447Z,100288.31
2022-08-11T22:18:16.114Z,100281.97
2022-08-11T22:21:02.307Z,100282.91
2022-08-11T22:23:48.353Z,100283.72
2022-08-11T22:26:36.974Z,100278.13
2022-08-11T22:29:50.238Z,100278.69
2022-08-11T22:32:31.265Z,100275.34
2022-08-11T22:35:18.266Z,100271.53
2022-08-11T22:38:05.287Z,100272.41
2022-08-11T22:40:51.582Z,100269.09
2022-08-11T22:43:36.997Z,100258.63
2022-08-11T22:46:23.202Z,100264.50
2022-08-11T22:49:08.735Z,100266.16
2022-08-11T22:51:54.338Z,100269.66
2022-08-11T22:54:40.558Z,100268.34
2022-08-11T22:57:26.142Z,100266.03
2022-08-11T23:00:11.988Z,100275.75
2022-08-11T23:02:58.437Z,100273.38
2022-08-11T23:05:44.373Z,100269.13
2022-08-11T23:08:30.142Z,100273.53
2022-08-11T23:11:15.793Z,100273.06
2022-08-11T23:14:02.960Z,100270.63
2022-08-11T23:16:49.712Z,100272.06
2022-08-11T23:20:06.547Z,100267.69
2022-08-11T23:22:49.870Z,100266.69
2022-08-11T23:25:36.493Z,100269.41
2022-08-11T23:28:24.038Z,100257.69
2022-08-11T23:31:12.141Z,100252.25
2022-08-11T23:33:59.269Z,100252.25
2022-08-11T23:36:47.230Z,100261.25
2022-08-11T23:39:34.150Z,100259.34
2022-08-11T23:42:20.374Z,100256.84
2022-08-11T23:45:09.525Z,100264.75
2022-08-11T23:47:56.740Z,100255.19
2022-08-11T23:50:42.444Z,100253.00
2022-08-11T23:53:28.172Z,100247.78
2022-08-11T23:56:13.814Z,100243.69
2022-08-11T23:58:59.811Z,100242.88
